Time;durP1;ratioP1;P1;durP2;ratioP2;P2;SDS_P1;SDS_P2;PMS_P1;PMS_P2;Temp;Humidity;BMP_temperature;BMP_pressure;BME280_temperature;BME280_humidity;BME280_pressure;Samples;Min_cycle;Max_cycle;Signal;HPM_P1;HPM_P2
2022/07/01 00:00:23;;;;;;;18.15;7.70;;;21.00;99.90;;;;;;5082251;28;20090;-75
2022/07/01 00:02:50;;;;;;;13.05;7.57;;;21.00;99.90;;;;;;5075605;28;20044;-76
2022/07/01 00:05:17;;;;;;;17.27;8.00;;;20.90;99.90;;;;;;5065962;28;20067;-76
2022/07/01 00:07:46;;;;;;;16.27;7.85;;;20.90;99.90;;;;;;5064262;28;20450;-74
2022/07/01 00:10:14;;;;;;;14.27;8.15;;;20.80;99.90;;;;;;5076661;28;20097;-75
2022/07/01 00:12:41;;;;;;;13.07;7.10;;;20.80;99.90;;;;;;5074820;28;20040;-75
2022/07/01 00:15:10;;;;;;;13.13;7.50;;;20.80;99.90;;;;;;5075700;28;20438;-75
2022/07/01 00:17:37;;;;;;;13.75;7.20;;;20.80;99.90;;;;;;5078545;28;20094;-75
2022/07/01 00:20:05;;;;;;;11.75;7.70;;;20.70;99.90;;;;;;5074189;28;20053;-76
2022/07/01 00:22:33;;;;;;;12.75;7.35;;;20.70;99.90;;;;;;5075799;28;20071;-74
2022/07/01 00:25:02;;;;;;;12.88;6.85;;;20.70;99.90;;;;;;5075081;28;20119;-76
2022/07/01 00:27:29;;;;;;;12.20;7.15;;;20.60;99.90;;;;;;5083302;28;20037;-75
2022/07/01 00:29:56;;;;;;;14.07;7.30;;;20.60;99.90;;;;;;5083737;28;20124;-74
2022/07/01 00:32:24;;;;;;;14.10;8.35;;;20.50;99.90;;;;;;5067212;28;20060;-74
2022/07/01 00:34:51;;;;;;;16.13;7.30;;;20.50;99.90;;;;;;5061933;28;20075;-75
2022/07/01 00:37:18;;;;;;;11.48;7.05;;;20.50;99.90;;;;;;5075287;28;20044;-75
2022/07/01 00:39:46;;;;;;;14.80;7.20;;;20.40;99.90;;;;;;5068556;28;20048;-74
2022/07/01 00:42:14;;;;;;;11.57;7.28;;;20.40;99.90;;;;;;5069517;28;20045;-75
2022/07/01 00:44:42;;;;;;;13.27;6.43;;;20.40;99.90;;;;;;5086126;28;20140;-77
2022/07/01 00:47:12;;;;;;;10.38;6.53;;;20.40;99.90;;;;;;5094773;28;20404;-75
2022/07/01 00:49:40;;;;;;;10.45;6.20;;;20.40;99.90;;;;;;5082477;28;20087;-75
2022/07/01 00:52:09;;;;;;;15.57;7.00;;;20.30;99.90;;;;;;5059680;28;20084;-75
2022/07/01 00:54:38;;;;;;;15.23;7.78;;;20.30;99.90;;;;;;5066088;28;20047;-76
2022/07/01 00:57:10;;;;;;;10.80;7.13;;;20.30;99.90;;;;;;5073084;28;20073;-76
2022/07/01 00:59:40;;;;;;;12.05;6.97;;;20.30;99.90;;;;;;5074386;28;20044;-75
2022/07/01 01:02:08;;;;;;;15.32;7.80;;;20.30;99.90;;;;;;5065254;28;20099;-75
2022/07/01 01:04:36;;;;;;;11.93;6.80;;;20.20;99.90;;;;;;5073605;28;20467;-75
2022/07/01 01:07:04;;;;;;;13.65;7.32;;;20.20;99.90;;;;;;5075601;28;20123;-75
2022/07/01 01:09:31;;;;;;;21.35;13.65;;;20.30;99.90;;;;;;5073592;28;20392;-75
2022/07/01 01:11:59;;;;;;;17.60;11.15;;;20.20;99.90;;;;;;5075172;28;20041;-75
2022/07/01 01:14:26;;;;;;;12.20;9.00;;;20.20;99.90;;;;;;5072856;28;20102;-76
2022/07/01 01:16:55;;;;;;;14.52;7.53;;;20.20;99.90;;;;;;5067889;28;20112;-76
2022/07/01 01:19:22;;;;;;;12.00;7.72;;;20.10;99.90;;;;;;5062856;28;20075;-75
2022/07/01 01:21:51;;;;;;;10.88;7.30;;;20.10;99.90;;;;;;5054611;28;20392;-75
2022/07/01 01:24:18;;;;;;;12.05;7.30;;;20.00;99.90;;;;;;5052964;28;20098;-75
2022/07/01 01:26:45;;;;;;;15.57;6.95;;;19.90;99.90;;;;;;5055827;28;20041;-75
2022/07/01 01:29:12;;;;;;;11.55;6.90;;;19.90;99.90;;;;;;5073136;28;20048;-75
2022/07/01 01:31:41;;;;;;;14.52;7.50;;;19.90;99.90;;;;;;5081530;28;20086;-75
2022/07/01 01:34:08;;;;;;;10.43;7.10;;;19.90;99.90;;;;;;5096651;28;20056;-76
2022/07/01 01:36:35;;;;;;;10.43;6.65;;;19.90;99.90;;;;;;5096712;28;20024;-77
2022/07/01 01:39:08;;;;;;;12.10;7.53;;;19.90;99.90;;;;;;5098141;28;20036;-75
2022/07/01 01:41:35;;;;;;;18.05;8.02;;;19.80;99.90;;;;;;5063935;28;20116;-75
2022/07/01 01:44:02;;;;;;;12.38;7.45;;;19.80;99.90;;;;;;5067087;28;20044;-76
2022/07/01 01:46:30;;;;;;;14.77;7.63;;;19.70;99.90;;;;;;5064758;28;20110;-74
2022/07/01 01:48:57;;;;;;;13.00;7.03;;;19.60;99.90;;;;;;5068779;28;20050;-76
2022/07/01 01:51:28;;;;;;;12.77;6.90;;;19.60;99.90;;;;;;5066061;28;20071;-77
2022/07/01 01:53:55;;;;;;;13.07;7.30;;;19.60;99.90;;;;;;5076128;28;20046;-75
2022/07/01 01:56:25;;;;;;;14.15;7.63;;;19.50;99.90;;;;;;5090618;28;20037;-77
2022/07/01 01:58:53;;;;;;;11.95;7.18;;;19.40;99.90;;;;;;5095125;28;20066;-75
2022/07/01 02:01:21;;;;;;;11.57;7.30;;;19.40;99.90;;;;;;5090096;28;20163;-75
2022/07/01 02:03:50;;;;;;;12.80;7.30;;;19.40;99.90;;;;;;5082688;28;20143;-76
2022/07/01 02:06:19;;;;;;;12.60;7.70;;;19.50;99.90;;;;;;5077622;28;20044;-77
2022/07/01 02:08:46;;;;;;;13.20;7.13;;;19.50;99.90;;;;;;5075722;28;20495;-77
2022/07/01 02:11:13;;;;;;;14.52;7.38;;;19.50;99.90;;;;;;5074636;28;20045;-75
2022/07/01 02:13:44;;;;;;;12.02;7.22;;;19.50;99.90;;;;;;5073869;28;20056;-76
2022/07/01 02:16:11;;;;;;;13.32;7.40;;;19.50;99.90;;;;;;5073592;28;20103;-77
2022/07/01 02:18:39;;;;;;;20.10;7.53;;;19.50;99.90;;;;;;5072586;28;20045;-76
2022/07/01 02:21:06;;;;;;;13.60;7.35;;;19.40;99.90;;;;;;5074556;28;20048;-75
2022/07/01 02:23:33;;;;;;;10.93;7.43;;;19.40;99.90;;;;;;5073458;28;20145;-75
2022/07/01 02:26:01;;;;;;;10.70;7.22;;;19.40;99.90;;;;;;5072859;28;20051;-78
2022/07/01 02:28:28;;;;;;;12.10;7.85;;;19.40;99.90;;;;;;5072573;28;20068;-74
2022/07/01 02:30:57;;;;;;;12.05;7.40;;;19.40;99.90;;;;;;5073162;28;20102;-76
2022/07/01 02:33:24;;;;;;;16.23;8.43;;;19.40;99.90;;;;;;5070042;28;20175;-77
2022/07/01 02:35:51;;;;;;;15.32;7.68;;;19.40;99.90;;;;;;5074144;28;20094;-76
2022/07/01 02:38:19;;;;;;;13.00;8.02;;;19.30;99.90;;;;;;5073635;28;20052;-78
2022/07/01 02:40:46;;;;;;;17.42;8.30;;;19.20;99.90;;;;;;5073973;28;20091;-77
2022/07/01 02:43:15;;;;;;;14.60;8.25;;;19.20;99.90;;;;;;5073302;28;20105;-75
2022/07/01 02:45:43;;;;;;;12.98;7.88;;;19.20;99.90;;;;;;5074703;28;20040;-76
2022/07/01 02:48:12;;;;;;;13.30;7.43;;;19.20;99.90;;;;;;5073982;28;20157;-76
2022/07/01 02:50:39;;;;;;;11.85;7.57;;;19.20;99.90;;;;;;5071934;28;20098;-76
2022/07/01 02:53:06;;;;;;;17.42;8.07;;;19.20;99.90;;;;;;5073975;28;20040;-75
2022/07/01 02:55:33;;;;;;;11.30;7.45;;;19.10;99.90;;;;;;5075453;28;20044;-75
2022/07/01 02:58:04;;;;;;;15.65;7.75;;;19.10;99.90;;;;;;5077019;28;20041;-76
2022/07/01 03:00:31;;;;;;;16.13;7.00;;;19.10;99.90;;;;;;5076901;28;20500;-75
2022/07/01 03:02:58;;;;;;;14.75;7.10;;;19.20;99.90;;;;;;5075929;28;20051;-75
2022/07/01 03:05:27;;;;;;;14.07;7.13;;;19.20;99.90;;;;;;5057205;28;20098;-76
2022/07/01 03:07:54;;;;;;;12.60;7.68;;;19.20;99.90;;;;;;5072723;28;20045;-75
2022/07/01 03:10:22;;;;;;;9.50;7.05;;;19.10;99.90;;;;;;5056959;28;20123;-75
2022/07/01 03:12:49;;;;;;;12.10;7.90;;;19.20;99.90;;;;;;5056605;28;20492;-77
2022/07/01 03:15:17;;;;;;;15.52;8.65;;;19.20;99.90;;;;;;5069684;28;20072;-75
2022/07/01 03:17:47;;;;;;;15.70;8.30;;;19.10;99.90;;;;;;5076403;28;20045;-75
2022/07/01 03:20:16;;;;;;;14.65;8.20;;;19.20;99.90;;;;;;5076351;28;20076;-76
2022/07/01 03:22:46;;;;;;;16.48;8.32;;;19.10;99.90;;;;;;5075783;28;20037;-76
2022/07/01 03:25:14;;;;;;;13.00;7.60;;;19.10;99.90;;;;;;5076398;28;20573;-75
2022/07/01 03:27:45;;;;;;;12.88;7.95;;;19.20;99.90;;;;;;5075172;28;20056;-75
2022/07/01 03:30:13;;;;;;;13.73;8.38;;;19.20;99.90;;;;;;5075589;28;20120;-76
2022/07/01 03:32:41;;;;;;;15.70;7.68;;;19.30;99.90;;;;;;5075379;28;20059;-76
2022/07/01 03:37:51;;;;;;;13.13;7.47;;;19.30;99.90;;;;;;5075829;28;20068;-76
2022/07/01 03:40:19;;;;;;;14.18;7.97;;;19.40;99.90;;;;;;5075656;28;20115;-76
2022/07/01 03:42:46;;;;;;;13.95;7.43;;;19.40;99.90;;;;;;5075100;28;20094;-75
2022/07/01 03:45:13;;;;;;;13.13;7.20;;;19.50;99.90;;;;;;5075022;28;20130;-75
2022/07/01 03:47:46;;;;;;;16.50;7.60;;;19.50;99.90;;;;;;5074952;28;20037;-76
2022/07/01 03:50:13;;;;;;;14.15;7.10;;;19.60;99.90;;;;;;5075359;28;20064;-76
2022/07/01 03:52:42;;;;;;;14.45;7.60;;;19.70;99.90;;;;;;5073563;28;20056;-77
2022/07/01 03:55:10;;;;;;;13.95;7.28;;;19.80;99.90;;;;;;5074379;28;20072;-76
2022/07/01 03:57:38;;;;;;;15.60;7.07;;;19.90;99.90;;;;;;5075351;28;20128;-76
2022/07/01 04:00:07;;;;;;;18.08;6.78;;;20.50;99.90;;;;;;5074981;28;20121;-78
2022/07/01 04:02:34;;;;;;;11.77;6.47;;;21.30;99.90;;;;;;5076169;28;20071;-76
2022/07/01 04:05:01;;;;;;;12.10;6.30;;;22.20;99.90;;;;;;5093843;28;20048;-75
2022/07/01 04:07:29;;;;;;;15.00;5.65;;;22.80;99.90;;;;;;5095972;28;20024;-76
2022/07/01 04:09:56;;;;;;;13.65;6.00;;;23.40;99.90;;;;;;5077395;28;20106;-77
2022/07/01 04:12:25;;;;;;;11.07;5.78;;;24.00;99.90;;;;;;5075058;28;20049;-76
2022/07/01 04:14:52;;;;;;;13.68;5.88;;;24.00;99.90;;;;;;5074411;28;20128;-77
2022/07/01 04:17:19;;;;;;;11.82;5.93;;;24.30;99.90;;;;;;5074555;28;20060;-77
2022/07/01 04:19:47;;;;;;;10.25;5.60;;;24.50;99.90;;;;;;5074596;28;20048;-77
2022/07/01 04:24:58;;;;;;;15.00;6.28;;;25.00;99.90;;;;;;5078521;28;20051;-75
2022/07/01 04:27:27;;;;;;;12.88;5.82;;;25.20;99.90;;;;;;5083995;28;20476;-76
2022/07/01 04:29:54;;;;;;;16.90;6.30;;;25.50;99.90;;;;;;5080237;28;20090;-77
2022/07/01 04:32:22;;;;;;;11.63;6.20;;;25.80;99.90;;;;;;5075714;28;20110;-76
2022/07/01 04:34:50;;;;;;;12.13;5.13;;;26.30;99.90;;;;;;5073492;28;20072;-76
2022/07/01 04:37:17;;;;;;;17.52;5.82;;;26.80;99.90;;;;;;5074490;28;20082;-77
2022/07/01 04:39:45;;;;;;;10.75;5.82;;;26.70;99.90;;;;;;5073547;28;20141;-76
2022/07/01 04:42:14;;;;;;;13.80;5.38;;;26.90;99.90;;;;;;5074305;28;20511;-76
2022/07/01 04:44:42;;;;;;;11.85;5.68;;;27.00;99.90;;;;;;5074210;28;20049;-74
2022/07/01 04:47:10;;;;;;;12.63;5.90;;;27.50;99.90;;;;;;5074117;28;20041;-76
2022/07/01 04:49:37;;;;;;;11.70;6.38;;;28.00;99.90;;;;;;5074502;28;20040;-77
2022/07/01 04:52:05;;;;;;;9.20;5.30;;;28.40;99.90;;;;;;5074335;28;20055;-77
2022/07/01 04:54:32;;;;;;;12.63;6.00;;;28.70;99.90;;;;;;5074249;28;20446;-76
2022/07/01 04:56:59;;;;;;;13.13;5.80;;;29.00;99.90;;;;;;5072725;28;20037;-76
2022/07/01 04:59:27;;;;;;;16.30;5.40;;;29.00;99.90;;;;;;5073698;28;20033;-77
2022/07/01 05:01:58;;;;;;;15.10;5.80;;;29.00;99.90;;;;;;5073710;28;20086;-77
2022/07/01 05:04:27;;;;;;;14.50;5.72;;;29.40;99.90;;;;;;5088546;28;20454;-77
2022/07/01 05:06:55;;;;;;;14.10;6.75;;;29.80;99.90;;;;;;5073754;28;20056;-76
2022/07/01 05:09:22;;;;;;;10.90;5.38;;;30.40;99.90;;;;;;5072215;28;20107;-76
2022/07/01 05:11:49;;;;;;;10.98;5.65;;;31.10;99.90;;;;;;5072492;28;20049;-76
2022/07/01 05:14:17;;;;;;;11.10;5.55;;;31.40;99.90;;;;;;5073208;28;20036;-77
2022/07/01 05:16:44;;;;;;;17.35;8.20;;;31.50;99.90;;;;;;5072179;28;20033;-76
2022/07/01 05:21:57;;;;;;;15.80;5.75;;;31.80;99.90;;;;;;5072991;28;20514;-77
2022/07/01 05:24:27;;;;;;;12.13;5.45;;;32.30;99.90;;;;;;5073025;28;20044;-77
2022/07/01 05:26:54;;;;;;;14.13;5.70;;;32.50;98.30;;;;;;5072963;28;20185;-77
2022/07/01 05:29:22;;;;;;;10.70;5.00;;;32.60;97.40;;;;;;5073498;28;20036;-77
2022/07/01 05:31:49;;;;;;;13.20;5.55;;;32.60;96.80;;;;;;5072462;28;20414;-76
2022/07/01 05:34:18;;;;;;;10.40;5.50;;;32.40;96.00;;;;;;5055349;28;20041;-76
2022/07/01 05:36:45;;;;;;;9.38;4.78;;;31.80;95.80;;;;;;5066258;28;20056;-76
2022/07/01 05:39:12;;;;;;;11.30;4.63;;;31.40;96.50;;;;;;5073922;28;20123;-77
2022/07/01 05:41:40;;;;;;;15.77;5.85;;;31.30;96.80;;;;;;5073135;28;20045;-76
2022/07/01 05:44:07;;;;;;;10.90;5.20;;;31.10;97.50;;;;;;5071622;28;20045;-76
2022/07/01 05:46:34;;;;;;;14.27;5.47;;;32.10;96.90;;;;;;5073576;28;20045;-77
2022/07/01 05:49:01;;;;;;;11.50;5.38;;;32.40;96.10;;;;;;5072176;28;20495;-77
2022/07/01 05:51:30;;;;;;;17.15;5.78;;;32.40;96.00;;;;;;5055222;28;20043;-76
2022/07/01 05:53:57;;;;;;;13.15;5.63;;;32.50;96.30;;;;;;5053695;28;20049;-77
2022/07/01 05:56:25;;;;;;;13.30;5.80;;;32.80;95.60;;;;;;5054499;28;20111;-77
2022/07/01 05:58:53;;;;;;;10.85;5.22;;;32.80;95.00;;;;;;5055030;28;20123;-77
2022/07/01 06:01:20;;;;;;;14.30;5.50;;;32.40;94.40;;;;;;5072089;28;20076;-77
2022/07/01 06:03:47;;;;;;;10.65;5.40;;;32.30;94.40;;;;;;5075103;28;20045;-76
2022/07/01 06:06:14;;;;;;;11.25;5.63;;;32.40;94.00;;;;;;5073683;28;20063;-77
2022/07/01 06:08:43;;;;;;;15.10;7.90;;;32.30;94.40;;;;;;5063354;28;20045;-78
2022/07/01 06:11:10;;;;;;;18.48;8.18;;;32.50;94.20;;;;;;5073813;28;20047;-78
2022/07/01 06:13:38;;;;;;;16.73;7.72;;;32.40;94.10;;;;;;5073903;28;20380;-75
2022/07/01 06:16:06;;;;;;;20.58;8.57;;;32.30;93.80;;;;;;5073556;28;20049;-77
2022/07/01 06:18:33;;;;;;;19.52;8.20;;;32.10;94.40;;;;;;5074221;28;20036;-78
2022/07/01 06:21:00;;;;;;;16.20;8.43;;;32.00;94.10;;;;;;5074241;28;20032;-78
2022/07/01 06:23:28;;;;;;;14.10;7.88;;;31.80;93.70;;;;;;5072846;28;20116;-77
2022/07/01 06:25:57;;;;;;;13.30;7.90;;;31.70;93.30;;;;;;5064645;28;20079;-78
2022/07/01 06:28:29;;;;;;;13.55;8.25;;;31.40;93.40;;;;;;5075348;28;20033;-77
2022/07/01 06:30:57;;;;;;;13.15;7.03;;;31.50;93.60;;;;;;5076650;28;20045;-77
2022/07/01 06:33:25;;;;;;;15.57;7.95;;;31.40;94.10;;;;;;5075705;28;20048;-78
2022/07/01 06:35:52;;;;;;;14.25;7.93;;;31.60;94.10;;;;;;5079120;28;20167;-77
2022/07/01 06:38:20;;;;;;;13.82;7.90;;;31.90;93.60;;;;;;5078270;28;20052;-78
2022/07/01 06:41:26;;;;;;;17.58;9.25;;;31.80;93.40;;;;;;5077232;28;20039;-78
2022/07/01 06:43:37;;;;;;;20.73;9.95;;;31.90;93.20;;;;;;5092751;28;20041;-78
2022/07/01 06:46:05;;;;;;;18.10;8.07;;;32.10;93.20;;;;;;5092263;28;20040;-75
2022/07/01 06:48:33;;;;;;;22.63;8.98;;;32.10;93.00;;;;;;5090091;28;20047;-75
2022/07/01 06:51:01;;;;;;;16.23;9.85;;;32.00;93.00;;;;;;5084943;28;20110;-75
2022/07/01 06:53:28;;;;;;;19.15;8.32;;;32.10;93.30;;;;;;5077966;28;20052;-75
2022/07/01 06:55:56;;;;;;;11.25;7.55;;;32.20;93.30;;;;;;5078559;28;20044;-75
2022/07/01 06:58:23;;;;;;;16.23;8.65;;;32.20;93.60;;;;;;5076750;28;20094;-75
2022/07/01 07:00:51;;;;;;;18.65;7.70;;;32.00;93.60;;;;;;5075332;28;20483;-75
2022/07/01 07:03:19;;;;;;;16.40;7.15;;;31.90;93.80;;;;;;5076736;28;20060;-73
2022/07/01 07:05:46;;;;;;;17.45;7.07;;;32.10;93.80;;;;;;5070541;28;20071;-75
2022/07/01 07:08:13;;;;;;;20.52;8.07;;;32.20;93.50;;;;;;5076770;28;20552;-74
2022/07/01 07:10:41;;;;;;;22.27;9.30;;;32.30;93.50;;;;;;5086658;28;20043;-74
2022/07/01 07:13:08;;;;;;;19.92;8.93;;;32.50;93.30;;;;;;5092612;28;20060;-75
2022/07/01 07:15:35;;;;;;;16.98;8.13;;;32.30;93.10;;;;;;5094207;28;20052;-74
2022/07/01 07:18:04;;;;;;;16.83;8.65;;;32.20;92.30;;;;;;5082108;28;20089;-74
2022/07/01 07:20:31;;;;;;;16.45;8.63;;;32.20;92.70;;;;;;5086486;28;20040;-74
2022/07/01 07:22:58;;;;;;;16.13;7.93;;;32.30;92.80;;;;;;5084559;28;20041;-75
2022/07/01 07:25:26;;;;;;;18.92;8.50;;;32.30;92.90;;;;;;5079549;28;20078;-74
2022/07/01 07:27:53;;;;;;;21.60;7.93;;;32.10;93.10;;;;;;5082018;28;20079;-74
2022/07/01 07:30:21;;;;;;;15.07;8.30;;;32.00;93.20;;;;;;5090430;28;20063;-74
2022/07/01 07:32:48;;;;;;;16.13;9.05;;;31.80;93.40;;;;;;5088906;28;20125;-74
2022/07/01 07:35:17;;;;;;;17.17;9.10;;;31.60;93.40;;;;;;5088486;28;20044;-74
2022/07/01 07:37:45;;;;;;;16.05;9.07;;;31.60;93.60;;;;;;5078370;28;20048;-74
2022/07/01 07:40:17;;;;;;;18.73;8.75;;;31.50;93.40;;;;;;5077707;28;20040;-75
2022/07/01 07:42:46;;;;;;;20.70;9.85;;;31.30;93.70;;;;;;5077512;28;20403;-73
2022/07/01 07:45:14;;;;;;;27.02;11.52;;;31.20;93.90;;;;;;5077273;28;20106;-75
2022/07/01 07:47:43;;;;;;;19.90;9.60;;;31.60;93.80;;;;;;5077278;28;20495;-74
2022/07/01 07:50:11;;;;;;;23.38;9.77;;;31.40;93.90;;;;;;5078084;28;20040;-73
2022/07/01 07:52:40;;;;;;;18.63;9.23;;;31.70;93.90;;;;;;5072714;28;20480;-74
2022/07/01 07:55:10;;;;;;;23.33;11.05;;;31.90;93.80;;;;;;5065058;28;20037;-73
2022/07/01 07:57:37;;;;;;;17.30;10.52;;;32.10;93.90;;;;;;5076766;28;20090;-74
2022/07/01 08:00:06;;;;;;;18.00;9.65;;;32.30;93.40;;;;;;5074973;28;20079;-75
2022/07/01 08:02:39;;;;;;;27.02;11.13;;;32.00;93.40;;;;;;5055858;28;20443;-74
2022/07/01 08:05:07;;;;;;;23.08;10.02;;;32.30;93.50;;;;;;5055535;28;20079;-74
2022/07/01 08:07:37;;;;;;;16.05;9.32;;;32.40;93.20;;;;;;5056339;28;20404;-75
2022/07/01 08:10:07;;;;;;;17.25;9.07;;;32.40;92.70;;;;;;5071034;28;20071;-75
2022/07/01 08:12:35;;;;;;;21.40;10.80;;;32.50;92.90;;;;;;5076611;28;20040;-75
2022/07/01 08:15:03;;;;;;;18.70;10.25;;;32.60;93.00;;;;;;5075080;28;20048;-74
2022/07/01 08:17:31;;;;;;;18.08;10.30;;;32.60;93.30;;;;;;5075525;28;20070;-74
2022/07/01 08:19:58;;;;;;;20.27;10.88;;;32.80;93.60;;;;;;5074151;28;20411;-76
2022/07/01 08:22:26;;;;;;;19.40;10.25;;;33.00;93.40;;;;;;5069840;28;20055;-75
2022/07/01 08:24:53;;;;;;;20.55;9.43;;;33.00;93.00;;;;;;5075585;28;20396;-74
2022/07/01 08:27:22;;;;;;;20.48;10.45;;;33.00;93.10;;;;;;5078344;28;20047;-75
2022/07/01 08:29:50;;;;;;;22.85;11.70;;;33.30;92.90;;;;;;5074150;28;20462;-75
2022/07/01 08:32:18;;;;;;;19.63;11.20;;;33.50;92.90;;;;;;5075668;28;20055;-75
2022/07/01 08:34:45;;;;;;;19.33;9.55;;;33.50;92.60;;;;;;5075369;28;20044;-74
2022/07/01 08:37:12;;;;;;;33.05;10.77;;;33.30;92.30;;;;;;5075034;28;20040;-75
2022/07/01 08:39:40;;;;;;;24.08;10.27;;;33.20;93.10;;;;;;5074295;28;20041;-75
2022/07/01 08:42:08;;;;;;;19.75;10.05;;;33.40;93.00;;;;;;5074577;28;20048;-74
2022/07/01 08:44:37;;;;;;;22.48;9.75;;;33.50;93.00;;;;;;5073971;28;20040;-74
2022/07/01 08:47:05;;;;;;;19.98;10.00;;;33.60;93.00;;;;;;5074060;28;20041;-75
2022/07/01 08:49:32;;;;;;;17.88;9.73;;;33.70;92.80;;;;;;5075065;28;20095;-74
2022/07/01 08:52:00;;;;;;;18.55;10.15;;;33.70;92.60;;;;;;5076590;28;20036;-73
2022/07/01 08:54:28;;;;;;;18.83;10.48;;;33.60;92.90;;;;;;5075037;28;20446;-75
2022/07/01 08:56:55;;;;;;;18.10;10.32;;;33.60;93.00;;;;;;5074805;28;20044;-74
2022/07/01 08:59:24;;;;;;;17.08;10.23;;;33.60;93.20;;;;;;5074204;28;20436;-75
2022/07/01 09:01:58;;;;;;;21.75;10.10;;;33.40;93.70;;;;;;5076283;28;20119;-73
2022/07/01 09:04:26;;;;;;;23.80;13.88;;;33.40;93.70;;;;;;5076333;28;20041;-75
2022/07/01 09:07:02;;;;;;;41.97;14.00;;;33.60;93.70;;;;;;5076570;28;20048;-74
2022/07/01 09:09:29;;;;;;;27.80;18.00;;;33.80;93.50;;;;;;5075093;28;20074;-76
2022/07/01 09:11:57;;;;;;;20.33;10.45;;;33.90;93.10;;;;;;5073058;28;20106;-76
2022/07/01 09:14:26;;;;;;;22.30;11.45;;;34.00;93.10;;;;;;5073421;28;20119;-75
2022/07/01 09:16:57;;;;;;;17.83;13.38;;;33.90;93.50;;;;;;5074338;28;20089;-74
2022/07/01 09:19:28;;;;;;;20.83;12.13;;;33.70;93.70;;;;;;5073855;28;20036;-75
2022/07/01 09:22:00;;;;;;;26.85;11.07;;;33.50;94.00;;;;;;5074693;28;20052;-75
2022/07/01 09:24:30;;;;;;;19.95;12.43;;;33.50;94.10;;;;;;5074287;28;20412;-74
2022/07/01 09:26:59;;;;;;;22.92;10.77;;;33.60;94.10;;;;;;5075249;28;20040;-74
2022/07/01 09:29:33;;;;;;;18.95;10.15;;;33.90;93.90;;;;;;5080300;28;20059;-74
2022/07/01 09:32:02;;;;;;;18.77;11.05;;;34.10;92.90;;;;;;5075973;28;20068;-75
2022/07/01 09:34:35;;;;;;;20.85;10.50;;;34.10;92.50;;;;;;5033922;28;20049;-75
2022/07/01 09:37:03;;;;;;;19.60;10.07;;;34.20;91.80;;;;;;5022346;28;20069;-75
2022/07/01 09:39:31;;;;;;;23.55;10.30;;;34.30;91.90;;;;;;5017225;28;20058;-74
2022/07/01 09:41:59;;;;;;;19.33;9.77;;;34.30;92.80;;;;;;5033712;28;20046;-75
2022/07/01 09:44:28;;;;;;;55.90;14.18;;;34.60;91.80;;;;;;5035522;28;20049;-75
2022/07/01 09:46:58;;;;;;;32.92;12.35;;;34.30;92.00;;;;;;5027671;28;20046;-75
2022/07/01 09:49:26;;;;;;;25.67;10.27;;;34.60;91.80;;;;;;5035910;28;20060;-74
2022/07/01 09:51:55;;;;;;;29.35;17.17;;;34.60;91.60;;;;;;5027571;28;20100;-74
2022/07/01 09:54:23;;;;;;;18.58;10.40;;;34.50;91.50;;;;;;5023051;28;20085;-74
2022/07/01 09:56:50;;;;;;;20.98;10.93;;;34.30;91.40;;;;;;5020643;28;20044;-74
2022/07/01 09:59:17;;;;;;;21.20;10.77;;;34.20;91.90;;;;;;5015342;28;20049;-75
2022/07/01 10:01:46;;;;;;;24.38;11.95;;;34.40;92.00;;;;;;5031391;28;20045;-75
2022/07/01 10:04:14;;;;;;;24.73;12.85;;;34.60;91.80;;;;;;5036743;28;20045;-73
2022/07/01 10:06:53;;;;;;;24.73;13.00;;;34.70;91.50;;;;;;5037497;28;20076;-76
2022/07/01 10:10:03;;;;;;;32.80;11.45;;;34.90;91.60;;;;;;5037539;28;20120;-75
2022/07/01 10:12:35;;;;;;;18.88;9.90;;;34.90;91.20;;;;;;4960169;28;20450;-75
2022/07/01 10:15:05;;;;;;;20.23;9.90;;;34.80;91.10;;;;;;4960969;28;20438;-75
2022/07/01 10:17:36;;;;;;;18.52;10.90;;;34.80;90.80;;;;;;5009157;28;20460;-74
2022/07/01 10:20:13;;;;;;;22.27;11.73;;;34.50;90.10;;;;;;5037426;28;20049;-75
2022/07/01 10:22:41;;;;;;;25.38;11.75;;;34.40;90.50;;;;;;5028546;28;20065;-73
2022/07/01 10:25:36;;;;;;;21.33;10.63;;;34.30;90.30;;;;;;5038103;28;20056;-75
2022/07/01 10:28:19;;;;;;;22.40;10.88;;;34.30;90.60;;;;;;5017759;28;20374;-74
2022/07/01 10:30:59;;;;;;;20.38;11.23;;;34.40;90.40;;;;;;5020149;28;20064;-75
2022/07/01 10:33:46;;;;;;;23.00;11.20;;;34.40;90.10;;;;;;5042716;28;20492;-74
2022/07/01 10:36:19;;;;;;;21.20;9.98;;;34.50;89.90;;;;;;5075944;28;20048;-74
2022/07/01 10:39:10;;;;;;;25.25;10.82;;;34.80;88.90;;;;;;5082136;28;20068;-75
2022/07/01 10:41:40;;;;;;;24.63;11.48;;;34.90;88.50;;;;;;5066046;28;20407;-75
2022/07/01 10:44:12;;;;;;;26.80;10.40;;;35.00;88.30;;;;;;5066788;28;20044;-75
2022/07/01 10:46:44;;;;;;;21.42;10.75;;;35.00;86.90;;;;;;5081348;28;20086;-75
2022/07/01 10:49:13;;;;;;;20.88;11.90;;;35.20;86.60;;;;;;5071413;28;20104;-75
2022/07/01 10:51:47;;;;;;;22.27;11.93;;;35.20;87.70;;;;;;5077130;28;20036;-73
2022/07/01 10:54:35;;;;;;;25.27;10.77;;;35.40;86.90;;;;;;5067767;28;20101;-73
2022/07/01 10:57:26;;;;;;;21.10;10.30;;;34.90;85.70;;;;;;5058332;28;20048;-74
2022/07/01 10:59:56;;;;;;;28.38;12.10;;;35.00;87.10;;;;;;5058252;28;20081;-73
2022/07/01 11:02:25;;;;;;;25.63;10.95;;;35.30;88.20;;;;;;5057555;28;20412;-74
2022/07/01 11:04:54;;;;;;;24.88;10.13;;;35.30;85.70;;;;;;5066843;28;20041;-74
2022/07/01 11:07:24;;;;;;;18.88;10.05;;;35.40;84.10;;;;;;5057215;28;20056;-74
2022/07/01 11:09:52;;;;;;;21.80;10.50;;;35.30;82.90;;;;;;5062385;28;20043;-73
2022/07/01 11:12:23;;;;;;;18.70;10.90;;;35.40;83.60;;;;;;5061171;28;20097;-74
2022/07/01 11:14:51;;;;;;;20.85;10.45;;;35.30;83.70;;;;;;5054599;28;20516;-74
2022/07/01 11:17:19;;;;;;;23.08;11.15;;;35.30;81.70;;;;;;5057559;28;20116;-74
2022/07/01 11:19:49;;;;;;;17.27;10.40;;;35.10;82.20;;;;;;5056583;28;20148;-74
2022/07/01 11:22:20;;;;;;;20.98;10.10;;;35.10;82.60;;;;;;5055660;28;20091;-74
2022/07/01 11:24:47;;;;;;;18.92;10.10;;;34.70;83.00;;;;;;5056252;28;20041;-74
2022/07/01 11:27:14;;;;;;;21.15;10.50;;;34.80;83.00;;;;;;5057932;28;20045;-75
2022/07/01 11:29:43;;;;;;;18.67;10.80;;;35.00;81.30;;;;;;5057729;28;20063;-74
2022/07/01 11:32:10;;;;;;;21.70;10.38;;;35.20;81.10;;;;;;5089875;28;20492;-75
2022/07/01 11:34:38;;;;;;;20.10;10.48;;;35.30;81.00;;;;;;5079194;28;20072;-74
2022/07/01 11:40:06;;;;;;;24.90;9.93;;;35.40;79.60;;;;;;5068917;28;20040;-74
2022/07/01 11:42:33;;;;;;;17.70;8.05;;;35.40;78.90;;;;;;5072625;28;20045;-74
2022/07/01 11:45:02;;;;;;;22.67;10.20;;;35.40;76.70;;;;;;5056195;28;20099;-74
2022/07/01 11:47:30;;;;;;;17.95;8.70;;;35.50;77.90;;;;;;5056431;28;20064;-74
2022/07/01 11:49:59;;;;;;;20.30;9.50;;;35.60;76.00;;;;;;5056455;28;20049;-74
2022/07/01 11:52:27;;;;;;;26.98;9.38;;;35.50;75.80;;;;;;5055130;28;20075;-74
2022/07/01 11:54:58;;;;;;;23.23;9.00;;;35.50;75.30;;;;;;5055540;28;20496;-75
2022/07/01 11:57:27;;;;;;;22.23;9.52;;;35.60;74.50;;;;;;5057238;28;20104;-75
2022/07/01 11:59:55;;;;;;;24.67;8.55;;;35.60;75.10;;;;;;5055727;28;20037;-75
2022/07/01 12:02:25;;;;;;;21.85;10.15;;;35.70;74.40;;;;;;5055244;28;20049;-75
2022/07/01 12:04:53;;;;;;;21.65;10.40;;;35.60;74.40;;;;;;5055200;28;20122;-75
2022/07/01 12:07:22;;;;;;;19.55;8.48;;;35.70;74.30;;;;;;5071771;28;20363;-74
2022/07/01 12:09:49;;;;;;;19.20;8.70;;;35.50;72.90;;;;;;5066830;28;20068;-75
2022/07/01 12:12:18;;;;;;;16.70;9.05;;;35.40;73.70;;;;;;5074946;28;20041;-76
2022/07/01 12:14:52;;;;;;;19.23;7.88;;;35.50;74.10;;;;;;5072949;28;20036;-74
2022/07/01 12:17:19;;;;;;;21.35;9.02;;;35.50;73.90;;;;;;5074537;28;20469;-74
2022/07/01 12:19:49;;;;;;;22.42;8.73;;;35.30;73.70;;;;;;5070545;28;20047;-75
2022/07/01 12:22:18;;;;;;;16.83;8.18;;;35.30;74.00;;;;;;5055015;28;20037;-74
2022/07/01 12:24:46;;;;;;;19.42;9.18;;;35.40;73.20;;;;;;5066028;28;20128;-74
2022/07/01 12:27:14;;;;;;;14.93;8.52;;;35.60;73.60;;;;;;5075162;28;20045;-74
2022/07/01 12:29:54;;;;;;;16.88;8.05;;;35.40;71.20;;;;;;5075123;28;20060;-75
2022/07/01 12:32:26;;;;;;;16.88;8.25;;;35.50;72.20;;;;;;5087427;28;20044;-74
2022/07/01 12:34:56;;;;;;;16.95;8.23;;;35.20;72.20;;;;;;5081365;28;20044;-73
2022/07/01 12:37:28;;;;;;;21.30;8.73;;;35.10;73.50;;;;;;5077157;28;20029;-74
2022/07/01 12:39:57;;;;;;;24.00;9.80;;;35.30;72.40;;;;;;5070306;28;20044;-73
2022/07/01 12:42:27;;;;;;;26.55;10.73;;;35.40;71.80;;;;;;5074308;28;20044;-75
2022/07/01 12:44:57;;;;;;;19.90;8.65;;;35.50;70.70;;;;;;5057653;28;20091;-75
2022/07/01 12:47:28;;;;;;;21.17;8.40;;;35.60;70.00;;;;;;5069299;28;20072;-75
2022/07/01 12:50:15;;;;;;;16.20;7.75;;;35.50;69.10;;;;;;5073651;28;20064;-75
2022/07/01 12:52:46;;;;;;;20.23;8.57;;;35.40;69.20;;;;;;5074080;28;20044;-75